Time,TemperatureF,DewpointF,PressureIn,WindDirection,WindDirectionDegrees,WindSpeedMPH,WindSpeedGustMPH,Humidity,HourlyPrecipIn,Conditions,Clouds,dailyrainin,SoftwareType,DateUTC
2013-11-14 00:14:00,37.3,24.0,30.40,NW,308,2.0,4.0,58,0.00,,,0.00,weatherlink.com 1.10,2013-11-14 05:14:00,
2013-11-14 00:29:00,37.7,23.0,30.39,West,259,0.0,4.0,55,0.00,,,0.00,weatherlink.com 1.10,2013-11-14 05:29:00,
2013-11-14 00:44:00,37.9,22.0,30.38,West,278,1.0,3.0,52,0.00,,,0.00,weatherlink.com 1.10,2013-11-14 05:44:00,
2013-11-14 00:59:00,37.8,22.0,30.37,West,278,0.0,2.0,54,0.00,,,0.00,weatherlink.com 1.10,2013-11-14 05:59:00,
2013-11-14 01:14:00,37.0,22.0,30.37,West,278,0.0,0.0,56,0.00,,,0.00,weatherlink.com 1.10,2013-11-14 06:14:00,
2013-11-14 01:29:00,36.1,22.0,30.36,West,278,0.0,0.0,58,0.00,,,0.00,weatherlink.com 1.10,2013-11-14 06:29:00,
2013-11-14 01:44:00,35.3,24.0,30.36,West,278,0.0,0.0,64,0.00,,,0.00,weatherlink.com 1.10,2013-11-14 06:44:00,
2013-11-14 01:59:00,34.4,24.0,30.36,West,278,0.0,0.0,66,0.00,,,0.00,weatherlink.com 1.10,2013-11-14 06:59:00,
2013-11-14 02:14:00,34.1,25.0,30.36,West,278,0.0,0.0,68,0.00,,,0.00,weatherlink.com 1.10,2013-11-14 07:14:00,
2013-11-14 02:29:00,34.6,25.0,30.37,West,274,0.0,1.0,69,0.00,,,0.00,weatherlink.com 1.10,2013-11-14 07:29:00,
2013-11-14 02:44:00,34.6,25.0,30.36,West,274,0.0,0.0,69,0.00,,,0.00,weatherlink.com 1.10,2013-11-14 07:44:00,
2013-11-14 02:59:00,34.5,25.0,30.36,West,274,0.0,0.0,68,0.00,,,0.00,weatherlink.com 1.10,2013-11-14 07:59:00,
2013-11-14 03:14:00,34.4,25.0,30.35,West,274,0.0,1.0,68,0.00,,,0.00,weatherlink.com 1.10,2013-11-14 08:14:00,
2013-11-14 03:29:00,34.1,25.0,30.35,West,274,0.0,0.0,68,0.00,,,0.00,weatherlink.com 1.10,2013-11-14 08:29:00,
2013-11-14 03:44:00,34.7,25.0,30.35,West,274,0.0,2.0,68,0.00,,,0.00,weatherlink.com 1.10,2013-11-14 08:44:00,
2013-11-14 03:59:00,35.2,26.0,30.35,West,274,0.0,0.0,68,0.00,,,0.00,weatherlink.com 1.10,2013-11-14 08:59:00,
2013-11-14 04:14:00,35.7,25.0,30.35,West,274,0.0,1.0,65,0.00,,,0.00,weatherlink.com 1.10,2013-11-14 09:14:00,
2013-11-14 04:29:00,36.3,25.0,30.35,West,273,0.0,2.0,63,0.00,,,0.00,weatherlink.com 1.10,2013-11-14 09:29:00,
2013-11-14 04:44:00,37.0,25.0,30.34,WSW,247,1.0,3.0,62,0.00,,,0.00,weatherlink.com 1.10,2013-11-14 09:44:00,
2013-11-14 04:59:00,37.3,25.0,30.35,SW,227,0.0,2.0,62,0.00,,,0.00,weatherlink.com 1.10,2013-11-14 09:59:00,
2013-11-14 05:14:00,37.4,26.0,30.34,SW,227,0.0,1.0,63,0.00,,,0.00,weatherlink.com 1.10,2013-11-14 10:14:00,
2013-11-14 05:29:00,37.1,26.0,30.34,SSW,205,0.0,0.0,64,0.00,,,0.00,weatherlink.com 1.10,2013-11-14 10:29:00,
2013-11-14 05:44:00,36.6,27.0,30.34,SSW,205,1.0,2.0,68,0.00,,,0.00,weatherlink.com 1.10,2013-11-14 10:44:00,
2013-11-14 06:00:00,36.7,26.0,30.34,SSW,205,0.0,2.0,65,0.00,,,0.00,weatherlink.com 1.10,2013-11-14 11:00:00,
2013-11-14 06:15:00,37.0,26.0,30.34,SSW,205,0.0,2.0,64,0.00,,,0.00,weatherlink.com 1.10,2013-11-14 11:15:00,
2013-11-14 06:30:00,36.7,26.0,30.34,SSW,205,0.0,0.0,66,0.00,,,0.00,weatherlink.com 1.10,2013-11-14 11:30:00,
2013-11-14 06:45:00,36.4,27.0,30.35,SSW,204,0.0,0.0,70,0.00,,,0.00,weatherlink.com 1.10,2013-11-14 11:45:00,
2013-11-14 07:00:00,35.5,27.0,30.36,SSW,205,0.0,0.0,71,0.00,,,0.00,weatherlink.com 1.10,2013-11-14 12:00:00,
2013-11-14 07:15:00,35.0,28.0,30.36,SSW,205,0.0,0.0,74,0.00,,,0.00,weatherlink.com 1.10,2013-11-14 12:15:00,
2013-11-14 07:30:00,34.9,28.0,30.36,SSW,205,0.0,0.0,76,0.00,,,0.00,weatherlink.com 1.10,2013-11-14 12:30:00,
2013-11-14 07:45:00,36.3,28.0,30.36,SSW,205,0.0,0.0,73,0.00,,,0.00,weatherlink.com 1.10,2013-11-14 12:45:00,
2013-11-14 08:00:00,37.4,28.0,30.36,SSW,204,0.0,1.0,69,0.00,,,0.00,weatherlink.com 1.10,2013-11-14 13:00:00,
2013-11-14 08:15:00,39.3,27.0,30.37,South,189,2.0,3.0,62,0.00,,,0.00,weatherlink.com 1.10,2013-11-14 13:15:00,
2013-11-14 08:30:00,40.6,26.0,30.37,South,190,0.0,3.0,57,0.00,,,0.00,weatherlink.com 1.10,2013-11-14 13:30:00,
2013-11-14 08:45:00,41.4,27.0,30.37,SW,225,1.0,4.0,57,0.00,,,0.00,weatherlink.com 1.10,2013-11-14 13:45:00,
2013-11-14 09:00:00,41.8,27.0,30.36,SSW,213,1.0,4.0,56,0.00,,,0.00,weatherlink.com 1.10,2013-11-14 14:00:00,
2013-11-14 09:15:00,42.2,28.0,30.37,SSE,167,0.0,4.0,57,0.00,,,0.00,weatherlink.com 1.10,2013-11-14 14:15:00,
2013-11-14 09:30:00,42.8,28.0,30.37,SSW,201,0.0,3.0,57,0.00,,,0.00,weatherlink.com 1.10,2013-11-14 14:30:00,
2013-11-14 09:45:00,43.4,28.0,30.37,South,190,0.0,3.0,55,0.00,,,0.00,weatherlink.com 1.10,2013-11-14 14:45:00,
2013-11-14 10:15:00,44.2,26.0,30.36,South,190,0.0,3.0,50,0.00,,,0.00,weatherlink.com 1.10,2013-11-14 15:15:00,
2013-11-14 10:30:00,45.0,25.0,30.36,SW,232,2.0,3.0,46,0.00,,,0.00,weatherlink.com 1.10,2013-11-14 15:30:00,
2013-11-14 10:45:00,45.7,26.0,30.35,South,184,2.0,4.0,47,0.00,,,0.00,weatherlink.com 1.10,2013-11-14 15:45:00,
2013-11-14 11:00:00,46.1,27.0,30.35,SSW,196,2.0,3.0,48,0.00,,,0.00,weatherlink.com 1.10,2013-11-14 16:00:00,
2013-11-14 11:15:00,46.6,27.0,30.34,South,186,2.0,3.0,47,0.00,,,0.00,weatherlink.com 1.10,2013-11-14 16:15:00,
2013-11-14 11:30:00,46.9,27.0,30.33,SSW,209,1.0,4.0,46,0.00,,,0.00,weatherlink.com 1.10,2013-11-14 16:30:00,
2013-11-14 11:45:00,47.5,27.0,30.32,South,185,0.0,3.0,45,0.00,,,0.00,weatherlink.com 1.10,2013-11-14 16:45:00,
2013-11-14 12:00:00,47.9,28.0,30.32,South,186,1.0,5.0,46,0.00,,,0.00,weatherlink.com 1.10,2013-11-14 17:00:00,
2013-11-14 12:15:00,48.5,29.0,30.31,South,190,2.0,3.0,47,0.00,,,0.00,weatherlink.com 1.10,2013-11-14 17:15:00,
2013-11-14 12:30:00,49.0,29.0,30.30,SE,128,0.0,3.0,46,0.00,,,0.00,weatherlink.com 1.10,2013-11-14 17:30:00,
2013-11-14 12:45:00,49.4,30.0,30.30,South,169,1.0,4.0,47,0.00,,,0.00,weatherlink.com 1.10,2013-11-14 17:45:00,
2013-11-14 13:00:00,50.2,29.0,30.29,South,185,2.0,4.0,45,0.00,,,0.00,weatherlink.com 1.10,2013-11-14 18:00:00,
2013-11-14 13:15:00,50.8,29.0,30.29,SSE,167,0.0,4.0,44,0.00,,,0.00,weatherlink.com 1.10,2013-11-14 18:15:00,
2013-11-14 13:30:00,51.3,29.0,30.28,South,175,4.0,5.0,43,0.00,,,0.00,weatherlink.com 1.10,2013-11-14 18:30:00,
2013-11-14 13:46:00,51.8,29.0,30.28,SSW,200,3.0,3.0,41,0.00,,,0.00,weatherlink.com 1.10,2013-11-14 18:46:00,
2013-11-14 14:01:00,52.6,28.0,30.28,South,176,1.0,3.0,39,0.00,,,0.00,weatherlink.com 1.10,2013-11-14 19:01:00,
2013-11-14 14:16:00,52.5,26.0,30.27,South,170,1.0,5.0,36,0.00,,,0.00,weatherlink.com 1.10,2013-11-14 19:16:00,
2013-11-14 14:31:00,52.1,28.0,30.27,South,174,1.0,5.0,39,0.00,,,0.00,weatherlink.com 1.10,2013-11-14 19:31:00,
2013-11-14 14:46:00,52.1,28.0,30.27,South,191,0.0,4.0,39,0.00,,,0.00,weatherlink.com 1.10,2013-11-14 19:46:00,
2013-11-14 15:01:00,52.6,27.0,30.27,SSE,165,2.0,8.0,37,0.00,,,0.00,weatherlink.com 1.10,2013-11-14 20:01:00,
2013-11-14 15:16:00,51.8,27.0,30.26,SSE,157,0.0,4.0,38,0.00,,,0.00,weatherlink.com 1.10,2013-11-14 20:16:00,
2013-11-14 15:31:00,51.5,28.0,30.26,SE,136,1.0,2.0,40,0.00,,,0.00,weatherlink.com 1.10,2013-11-14 20:31:00,
2013-11-14 15:46:00,50.5,28.0,30.27,SE,136,0.0,1.0,42,0.00,,,0.00,weatherlink.com 1.10,2013-11-14 20:46:00,
2013-11-14 16:01:00,49.8,28.0,30.26,SE,136,1.0,1.0,44,0.00,,,0.00,weatherlink.com 1.10,2013-11-14 21:01:00,
2013-11-14 16:16:00,49.7,29.0,30.26,NNW,346,0.0,2.0,46,0.00,,,0.00,weatherlink.com 1.10,2013-11-14 21:16:00,
2013-11-14 16:31:00,49.7,29.0,30.26,NNW,346,0.0,1.0,45,0.00,,,0.00,weatherlink.com 1.10,2013-11-14 21:31:00,
2013-11-14 16:46:00,49.4,29.0,30.26,NNW,346,0.0,2.0,46,0.00,,,0.00,weatherlink.com 1.10,2013-11-14 21:46:00,
2013-11-14 17:01:00,48.8,30.0,30.27,NNW,346,0.0,1.0,48,0.00,,,0.00,weatherlink.com 1.10,2013-11-14 22:01:00,
2013-11-14 17:16:00,48.1,30.0,30.27,NNW,346,0.0,1.0,50,0.00,,,0.00,weatherlink.com 1.10,2013-11-14 22:16:00,
2013-11-14 17:31:00,47.4,30.0,30.27,NNW,346,0.0,1.0,52,0.00,,,0.00,weatherlink.com 1.10,2013-11-14 22:31:00,
2013-11-14 17:46:00,46.2,30.0,30.27,NNW,346,0.0,0.0,54,0.00,,,0.00,weatherlink.com 1.10,2013-11-14 22:46:00,
2013-11-14 18:01:00,45.3,32.0,30.27,NNW,346,0.0,0.0,60,0.00,,,0.00,weatherlink.com 1.10,2013-11-14 23:01:00,
2013-11-14 18:16:00,45.0,33.0,30.27,NNW,346,0.0,0.0,62,0.00,,,0.00,weatherlink.com 1.10,2013-11-14 23:16:00,
2013-11-14 18:31:00,44.7,33.0,30.27,NNW,346,0.0,0.0,64,0.00,,,0.00,weatherlink.com 1.10,2013-11-14 23:31:00,
2013-11-14 18:46:00,44.0,33.0,30.27,NNW,346,0.0,0.0,66,0.00,,,0.00,weatherlink.com 1.10,2013-11-14 23:46:00,
2013-11-14 19:01:00,42.4,33.0,30.27,NNW,346,0.0,0.0,69,0.00,,,0.00,weatherlink.com 1.10,2013-11-15 00:01:00,
2013-11-14 19:16:00,41.1,33.0,30.27,NNW,346,0.0,0.0,74,0.00,,,0.00,weatherlink.com 1.10,2013-11-15 00:16:00,
2013-11-14 19:31:00,40.3,33.0,30.27,NNW,346,0.0,0.0,75,0.00,,,0.00,weatherlink.com 1.10,2013-11-15 00:31:00,
2013-11-14 19:46:00,39.6,33.0,30.27,NNW,346,0.0,0.0,77,0.00,,,0.00,weatherlink.com 1.10,2013-11-15 00:46:00,
2013-11-14 20:01:00,39.2,33.0,30.26,NNW,346,0.0,0.0,79,0.00,,,0.00,weatherlink.com 1.10,2013-11-15 01:01:00,
2013-11-14 20:16:00,39.0,33.0,30.26,NNW,346,0.0,0.0,80,0.00,,,0.00,weatherlink.com 1.10,2013-11-15 01:16:00,
2013-11-14 20:31:00,38.7,33.0,30.26,NNW,346,0.0,0.0,80,0.00,,,0.00,weatherlink.com 1.10,2013-11-15 01:31:00,
2013-11-14 20:46:00,38.7,33.0,30.26,NNW,346,0.0,0.0,80,0.00,,,0.00,weatherlink.com 1.10,2013-11-15 01:46:00,
2013-11-14 21:01:00,38.7,34.0,30.26,NNW,346,0.0,0.0,83,0.00,,,0.00,weatherlink.com 1.10,2013-11-15 02:01:00,
2013-11-14 21:16:00,38.8,34.0,30.26,NNW,346,0.0,0.0,84,0.00,,,0.00,weatherlink.com 1.10,2013-11-15 02:16:00,
2013-11-14 21:31:00,39.1,35.0,30.26,NNW,346,0.0,0.0,85,0.00,,,0.00,weatherlink.com 1.10,2013-11-15 02:31:00,
2013-11-14 21:46:00,39.3,36.0,30.25,NNW,346,0.0,0.0,86,0.00,,,0.00,weatherlink.com 1.10,2013-11-15 02:46:00,
2013-11-14 22:01:00,39.7,36.0,30.25,NNW,346,0.0,0.0,85,0.00,,,0.00,weatherlink.com 1.10,2013-11-15 03:01:00,
2013-11-14 22:16:00,40.6,36.0,30.25,NNW,346,0.0,0.0,82,0.00,,,0.00,weatherlink.com 1.10,2013-11-15 03:16:00,
2013-11-14 22:31:00,42.3,36.0,30.25,NNW,346,0.0,0.0,78,0.00,,,0.00,weatherlink.com 1.10,2013-11-15 03:31:00,
2013-11-14 22:46:00,43.7,37.0,30.25,NNW,346,1.0,2.0,76,0.00,,,0.00,weatherlink.com 1.10,2013-11-15 03:46:00,
2013-11-14 23:01:00,44.7,36.0,30.25,NNW,346,0.0,1.0,72,0.00,,,0.00,weatherlink.com 1.10,2013-11-15 04:01:00,
2013-11-14 23:16:00,45.6,36.0,30.25,NNW,346,0.0,1.0,68,0.00,,,0.00,weatherlink.com 1.10,2013-11-15 04:16:00,
2013-11-14 23:31:00,45.9,35.0,30.25,NNW,346,0.0,1.0,66,0.00,,,0.00,weatherlink.com 1.10,2013-11-15 04:31:00,
2013-11-14 23:46:00,46.0,35.0,30.24,NNW,346,0.0,1.0,65,0.00,,,0.00,weatherlink.com 1.10,2013-11-15 04:46:00,